sensor_id;sensor_type;location;lat;lon;timestamp;pressure;altitude;pressure_sealevel;temperature;humidity
73936;BME280;62287;50.858;0.252;2023-02-03T09:22:05;102921.29;;;11.53;41.62
73936;BME280;62287;50.858;0.252;2023-02-03T09:22:36;102922.00;;;11.16;41.29
73936;BME280;62287;50.858;0.252;2023-02-03T09:23:07;102918.94;;;12.38;41.12
73936;BME280;62287;50.858;0.252;2023-02-03T09:23:39;102915.79;;;12.52;40.72
73936;BME280;62287;50.858;0.252;2023-02-03T09:24:11;102920.67;;;12.12;40.67
73936;BME280;62287;50.858;0.252;2023-02-03T09:24:42;102918.70;;;11.85;40.35
73936;BME280;62287;50.858;0.252;2023-02-03T09:25:13;102918.59;;;12.63;40.36
73936;BME280;62287;50.858;0.252;2023-02-03T09:25:44;102918.29;;;12.49;40.04
73936;BME280;62287;50.858;0.252;2023-02-03T09:26:16;102917.21;;;13.57;39.21
73936;BME280;62287;50.858;0.252;2023-02-03T09:26:47;102919.20;;;13.41;38.88
73936;BME280;62287;50.858;0.252;2023-02-03T09:27:18;102919.24;;;13.46;38.43
73936;BME280;62287;50.858;0.252;2023-02-03T09:27:49;102928.12;;;14.20;38.05
73936;BME280;62287;50.858;0.252;2023-02-03T09:28:20;102920.86;;;14.62;37.77
73936;BME280;62287;50.858;0.252;2023-02-03T09:28:52;102924.11;;;15.10;37.87
73936;BME280;62287;50.858;0.252;2023-02-03T09:29:23;102922.23;;;14.49;38.10
73936;BME280;62287;50.858;0.252;2023-02-03T09:29:54;102921.46;;;15.35;37.94
73936;BME280;62287;50.858;0.252;2023-02-03T09:30:25;102921.15;;;15.12;38.25
73936;BME280;62287;50.858;0.252;2023-02-03T09:30:59;102920.74;;;15.30;38.42
73936;BME280;62287;50.858;0.252;2023-02-03T09:31:29;102923.36;;;15.13;38.33
73936;BME280;62287;50.858;0.252;2023-02-03T09:32:00;102927.48;;;15.26;38.47
73936;BME280;62287;50.858;0.252;2023-02-03T09:32:31;102925.80;;;15.36;38.50
73936;BME280;62287;50.858;0.252;2023-02-03T09:33:02;102928.82;;;15.08;38.57
73936;BME280;62287;50.858;0.252;2023-02-03T09:33:34;102934.32;;;14.72;38.75
73936;BME280;62287;50.858;0.252;2023-02-03T09:34:04;102935.91;;;14.99;38.74
73936;BME280;62287;50.858;0.252;2023-02-03T09:34:36;102937.77;;;14.95;38.87
73936;BME280;62287;50.858;0.252;2023-02-03T09:35:08;102939.59;;;15.13;38.98
73936;BME280;62287;50.858;0.252;2023-02-03T09:35:39;102940.29;;;14.85;38.99
73936;BME280;62287;50.858;0.252;2023-02-03T09:36:10;102947.18;;;15.06;38.80
73936;BME280;62287;50.858;0.252;2023-02-03T09:36:42;102945.43;;;14.65;39.14
73936;BME280;62287;50.858;0.252;2023-02-03T09:37:13;102947.48;;;14.65;39.19
73936;BME280;62287;50.858;0.252;2023-02-03T09:37:44;102948.46;;;14.89;39.15
73936;BME280;62287;50.858;0.252;2023-02-03T09:38:14;102946.03;;;14.77;39.06
73936;BME280;62287;50.858;0.252;2023-02-03T09:38:45;102949.29;;;15.54;39.11
73936;BME280;62287;50.858;0.252;2023-02-03T09:39:16;102949.68;;;14.83;39.41
73936;BME280;62287;50.858;0.252;2023-02-03T09:39:47;102953.97;;;14.20;39.62
73936;BME280;62287;50.858;0.252;2023-02-03T09:40:22;102948.25;;;14.67;39.20
73936;BME280;62287;50.858;0.252;2023-02-03T09:40:59;102948.66;;;14.87;39.38
73936;BME280;62287;50.858;0.252;2023-02-03T09:42:01;102950.63;;;14.23;40.01
73936;BME280;62287;50.858;0.252;2023-02-03T09:42:50;102956.38;;;14.03;40.04
73936;BME280;62287;50.858;0.252;2023-02-03T09:43:31;102962.22;;;14.46;39.90
73936;BME280;62287;50.858;0.252;2023-02-03T09:44:10;102956.60;;;14.93;39.82
73936;BME280;62287;50.858;0.252;2023-02-03T09:44:47;102957.87;;;14.86;39.51
73936;BME280;62287;50.858;0.252;2023-02-03T09:45:25;102951.37;;;14.99;39.31
73936;BME280;62287;50.858;0.252;2023-02-03T09:46:00;102957.00;;;14.84;39.54
73936;BME280;62287;50.858;0.252;2023-02-03T09:46:34;102956.27;;;15.41;39.39
73936;BME280;62287;50.858;0.252;2023-02-03T09:47:11;102955.94;;;15.09;39.57
73936;BME280;62287;50.858;0.252;2023-02-03T09:47:44;102954.91;;;14.91;39.40
73936;BME280;62287;50.858;0.252;2023-02-03T09:48:19;102963.30;;;14.74;39.61
73936;BME280;62287;50.858;0.252;2023-02-03T09:48:53;102960.66;;;14.64;40.12
73936;BME280;62287;50.858;0.252;2023-02-03T09:49:31;102966.39;;;14.87;39.98
73936;BME280;62287;50.858;0.252;2023-02-03T09:50:11;102968.45;;;15.05;39.75
73936;BME280;62287;50.858;0.252;2023-02-03T09:50:44;102968.18;;;14.94;39.64
73936;BME280;62287;50.858;0.252;2023-02-03T09:51:19;102973.92;;;14.92;39.76
73936;BME280;62287;50.858;0.252;2023-02-03T09:51:55;102972.68;;;15.35;39.43
73936;BME280;62287;50.858;0.252;2023-02-03T09:52:30;102975.47;;;15.03;39.61
73936;BME280;62287;50.858;0.252;2023-02-03T09:53:05;102977.04;;;14.20;39.75
73936;BME280;62287;50.858;0.252;2023-02-03T09:53:43;102980.36;;;14.93;39.82
73936;BME280;62287;50.858;0.252;2023-02-03T09:54:19;102984.38;;;14.66;39.92
73936;BME280;62287;50.858;0.252;2023-02-03T09:54:56;102986.63;;;14.61;40.06
73936;BME280;62287;50.858;0.252;2023-02-03T09:55:33;102989.13;;;14.30;39.93
73936;BME280;62287;50.858;0.252;2023-02-03T09:56:05;102991.11;;;14.96;39.77
73936;BME280;62287;50.858;0.252;2023-02-03T09:56:37;102992.94;;;14.86;39.81
73936;BME280;62287;50.858;0.252;2023-02-03T09:57:15;102990.68;;;14.77;39.54
73936;BME280;62287;50.858;0.252;2023-02-03T09:57:52;102990.03;;;14.49;39.85
73936;BME280;62287;50.858;0.252;2023-02-03T09:58:28;102989.80;;;14.92;39.75
73936;BME280;62287;50.858;0.252;2023-02-03T09:59:02;102989.40;;;14.57;40.03
73936;BME280;62287;50.858;0.252;2023-02-03T09:59:34;102990.25;;;14.62;39.68
73936;BME280;62287;50.858;0.252;2023-02-03T10:00:15;102993.41;;;15.11;39.64
73936;BME280;62287;50.858;0.252;2023-02-03T10:00:50;102995.66;;;14.62;39.71
73936;BME280;62287;50.858;0.252;2023-02-03T10:01:23;102999.45;;;14.93;39.60
73936;BME280;62287;50.858;0.252;2023-02-03T10:02:01;102995.91;;;14.80;39.83
73936;BME280;62287;50.858;0.252;2023-02-03T10:02:45;102995.52;;;14.15;39.65
73936;BME280;62287;50.858;0.252;2023-02-03T10:03:27;102993.38;;;15.00;39.69
73936;BME280;62287;50.858;0.252;2023-02-03T10:04:04;102993.23;;;14.67;39.64
73936;BME280;62287;50.858;0.252;2023-02-03T10:04:50;102992.61;;;14.89;39.76
73936;BME280;62287;50.858;0.252;2023-02-03T10:05:31;102992.16;;;14.63;40.06
73936;BME280;62287;50.858;0.252;2023-02-03T10:06:13;102998.86;;;14.53;39.80
73936;BME280;62287;50.858;0.252;2023-02-03T10:06:46;102993.03;;;14.82;39.88
73936;BME280;62287;50.858;0.252;2023-02-03T10:07:21;102990.01;;;14.55;39.74
73936;BME280;62287;50.858;0.252;2023-02-03T10:08:02;102989.68;;;14.45;39.78
73936;BME280;62287;50.858;0.252;2023-02-03T10:08:53;102988.69;;;14.20;39.66
73936;BME280;62287;50.858;0.252;2023-02-03T10:09:36;102988.69;;;15.19;39.49
73936;BME280;62287;50.858;0.252;2023-02-03T10:10:17;102987.68;;;14.04;39.76
73936;BME280;62287;50.858;0.252;2023-02-03T10:10:57;102984.11;;;14.32;39.98
73936;BME280;62287;50.858;0.252;2023-02-03T10:11:42;102989.09;;;14.92;39.77
73936;BME280;62287;50.858;0.252;2023-02-03T10:12:32;102984.45;;;14.77;39.75
73936;BME280;62287;50.858;0.252;2023-02-03T10:13:17;102981.21;;;14.82;39.45
73936;BME280;62287;50.858;0.252;2023-02-03T10:13:59;102982.70;;;14.54;39.65
73936;BME280;62287;50.858;0.252;2023-02-03T10:14:46;102981.90;;;14.34;39.56
73936;BME280;62287;50.858;0.252;2023-02-03T10:16:08;102982.98;;;14.95;39.35
73936;BME280;62287;50.858;0.252;2023-02-03T10:16:51;102980.01;;;14.98;39.72
73936;BME280;62287;50.858;0.252;2023-02-03T10:17:30;102979.02;;;14.98;39.41
73936;BME280;62287;50.858;0.252;2023-02-03T10:18:04;102976.69;;;15.27;39.42
73936;BME280;62287;50.858;0.252;2023-02-03T10:18:39;102980.11;;;15.13;39.59
73936;BME280;62287;50.858;0.252;2023-02-03T10:19:16;102979.46;;;14.56;39.27
73936;BME280;62287;50.858;0.252;2023-02-03T10:19:54;102978.90;;;15.59;39.14
73936;BME280;62287;50.858;0.252;2023-02-03T10:20:34;102975.64;;;15.15;39.11
73936;BME280;62287;50.858;0.252;2023-02-03T10:21:14;102980.33;;;15.18;39.08
73936;BME280;62287;50.858;0.252;2023-02-03T10:21:50;102978.06;;;14.98;38.91
73936;BME280;62287;50.858;0.252;2023-02-03T10:22:25;102981.68;;;15.32;38.85
73936;BME280;62287;50.858;0.252;2023-02-03T10:23:00;102986.07;;;15.53;38.80
73936;BME280;62287;50.858;0.252;2023-02-03T10:23:34;102987.02;;;15.87;38.81
73936;BME280;62287;50.858;0.252;2023-02-03T10:24:11;102992.00;;;15.20;39.03
73936;BME280;62287;50.858;0.252;2023-02-03T10:24:46;102993.85;;;14.75;39.06
73936;BME280;62287;50.858;0.252;2023-02-03T10:25:20;102994.58;;;15.07;39.23
73936;BME280;62287;50.858;0.252;2023-02-03T10:25:55;102996.40;;;15.59;39.08
73936;BME280;62287;50.858;0.252;2023-02-03T10:26:28;102994.77;;;15.63;38.99
73936;BME280;62287;50.858;0.252;2023-02-03T10:26:59;103000.97;;;15.60;39.00
73936;BME280;62287;50.858;0.252;2023-02-03T10:27:31;103002.59;;;14.92;38.87
73936;BME280;62287;50.858;0.252;2023-02-03T10:28:08;103005.23;;;15.39;38.96
73936;BME280;62287;50.858;0.252;2023-02-03T10:28:47;103004.59;;;15.24;38.98
73936;BME280;62287;50.858;0.252;2023-02-03T10:29:28;103005.29;;;15.61;39.10
73936;BME280;62287;50.858;0.252;2023-02-03T10:30:04;103007.39;;;15.21;39.03
73936;BME280;62287;50.858;0.252;2023-02-03T10:30:40;103009.55;;;14.68;39.18
73936;BME280;62287;50.858;0.252;2023-02-03T10:31:16;103007.05;;;15.60;39.00
73936;BME280;62287;50.858;0.252;2023-02-03T10:31:48;103009.06;;;15.52;39.19
73936;BME280;62287;50.858;0.252;2023-02-03T10:32:19;103011.78;;;14.76;39.14
73936;BME280;62287;50.858;0.252;2023-02-03T10:32:53;103016.14;;;15.43;39.21
73936;BME280;62287;50.858;0.252;2023-02-03T10:33:27;103015.37;;;15.16;39.01
73936;BME280;62287;50.858;0.252;2023-02-03T10:33:59;103016.69;;;14.97;38.94
73936;BME280;62287;50.858;0.252;2023-02-03T10:34:31;103018.62;;;15.37;38.90
73936;BME280;62287;50.858;0.252;2023-02-03T10:35:04;103020.23;;;15.58;38.96
73936;BME280;62287;50.858;0.252;2023-02-03T10:35:42;103022.25;;;15.40;38.84
73936;BME280;62287;50.858;0.252;2023-02-03T10:36:19;103030.08;;;15.00;39.20
73936;BME280;62287;50.858;0.252;2023-02-03T10:36:54;103031.63;;;15.01;38.98
73936;BME280;62287;50.858;0.252;2023-02-03T10:37:28;103028.42;;;15.28;39.00
73936;BME280;62287;50.858;0.252;2023-02-03T10:38:00;103034.71;;;15.33;38.94
73936;BME280;62287;50.858;0.252;2023-02-03T10:38:40;103036.42;;;15.04;38.87
73936;BME280;62287;50.858;0.252;2023-02-03T10:39:20;103041.86;;;15.41;38.86
73936;BME280;62287;50.858;0.252;2023-02-03T10:39:56;103042.93;;;15.18;39.08
73936;BME280;62287;50.858;0.252;2023-02-03T10:40:27;103043.83;;;15.42;38.79
73936;BME280;62287;50.858;0.252;2023-02-03T10:40:58;103043.74;;;15.68;38.94
73936;BME280;62287;50.858;0.252;2023-02-03T10:41:30;103042.72;;;15.40;38.95
73936;BME280;62287;50.858;0.252;2023-02-03T10:42:03;103047.92;;;15.47;38.80
73936;BME280;62287;50.858;0.252;2023-02-03T10:42:35;103045.00;;;15.02;38.89
73936;BME280;62287;50.858;0.252;2023-02-03T10:43:08;103048.45;;;15.73;38.87
73936;BME280;62287;50.858;0.252;2023-02-03T10:43:40;103047.13;;;15.27;38.90
73936;BME280;62287;50.858;0.252;2023-02-03T10:44:13;103048.73;;;15.85;38.79
73936;BME280;62287;50.858;0.252;2023-02-03T10:44:47;103049.37;;;15.91;38.72
73936;BME280;62287;50.858;0.252;2023-02-03T10:45:19;103057.39;;;15.54;38.67
73936;BME280;62287;50.858;0.252;2023-02-03T10:45:50;103053.28;;;15.49;38.76
73936;BME280;62287;50.858;0.252;2023-02-03T10:46:27;103053.79;;;15.33;38.90
73936;BME280;62287;50.858;0.252;2023-02-03T10:46:58;103054.86;;;14.92;38.92
73936;BME280;62287;50.858;0.252;2023-02-03T10:47:31;103056.77;;;15.00;38.84
73936;BME280;62287;50.858;0.252;2023-02-03T10:48:05;103059.89;;;15.60;38.77
73936;BME280;62287;50.858;0.252;2023-02-03T10:48:36;103055.30;;;15.22;38.70
73936;BME280;62287;50.858;0.252;2023-02-03T10:49:08;103058.26;;;15.53;38.72
73936;BME280;62287;50.858;0.252;2023-02-03T10:49:40;103057.58;;;15.54;38.68
73936;BME280;62287;50.858;0.252;2023-02-03T10:50:15;103058.42;;;15.55;38.70
73936;BME280;62287;50.858;0.252;2023-02-03T10:50:48;103063.96;;;16.07;38.65
73936;BME280;62287;50.858;0.252;2023-02-03T10:51:22;103059.86;;;15.10;39.01
73936;BME280;62287;50.858;0.252;2023-02-03T10:51:58;103058.54;;;15.72;38.81
73936;BME280;62287;50.858;0.252;2023-02-03T10:52:32;103059.95;;;15.40;38.81
73936;BME280;62287;50.858;0.252;2023-02-03T10:53:22;103064.08;;;15.89;38.73
73936;BME280;62287;50.858;0.252;2023-02-03T10:53:53;103065.88;;;16.07;38.66
73936;BME280;62287;50.858;0.252;2023-02-03T10:54:28;103064.79;;;15.70;38.66
73936;BME280;62287;50.858;0.252;2023-02-03T10:55:04;103066.19;;;15.68;38.59
73936;BME280;62287;50.858;0.252;2023-02-03T10:55:35;103065.89;;;16.08;38.61
73936;BME280;62287;50.858;0.252;2023-02-03T10:56:09;103064.30;;;15.12;38.81
73936;BME280;62287;50.858;0.252;2023-02-03T10:56:41;103064.12;;;15.62;38.91
73936;BME280;62287;50.858;0.252;2023-02-03T10:57:13;103062.83;;;15.65;38.90
73936;BME280;62287;50.858;0.252;2023-02-03T10:57:45;103065.74;;;15.69;38.89
73936;BME280;62287;50.858;0.252;2023-02-03T10:58:21;103062.85;;;15.08;38.80
73936;BME280;62287;50.858;0.252;2023-02-03T10:58:56;103062.84;;;15.99;38.69
73936;BME280;62287;50.858;0.252;2023-02-03T10:59:30;103063.30;;;15.94;38.63
73936;BME280;62287;50.858;0.252;2023-02-03T11:00:07;103060.17;;;14.92;38.94
73936;BME280;62287;50.858;0.252;2023-02-03T11:00:38;103060.57;;;15.88;38.79
73936;BME280;62287;50.858;0.252;2023-02-03T11:01:11;103060.32;;;15.42;38.88
73936;BME280;62287;50.858;0.252;2023-02-03T11:01:46;103059.60;;;15.08;38.79
73936;BME280;62287;50.858;0.252;2023-02-03T11:02:22;103060.65;;;15.38;38.86
73936;BME280;62287;50.858;0.252;2023-02-03T11:02:56;103062.93;;;15.31;38.70
73936;BME280;62287;50.858;0.252;2023-02-03T11:03:28;103059.10;;;15.73;38.65
73936;BME280;62287;50.858;0.252;2023-02-03T11:04:01;103061.13;;;16.10;38.57
73936;BME280;62287;50.858;0.252;2023-02-03T11:04:33;103060.08;;;15.86;38.67
73936;BME280;62287;50.858;0.252;2023-02-03T11:05:19;103063.50;;;15.69;38.61
73936;BME280;62287;50.858;0.252;2023-02-03T11:06:04;103059.81;;;15.49;38.75
73936;BME280;62287;50.858;0.252;2023-02-03T11:06:52;103058.07;;;15.63;38.62
73936;BME280;62287;50.858;0.252;2023-02-03T11:07:29;103058.59;;;16.04;38.57
73936;BME280;62287;50.858;0.252;2023-02-03T11:08:00;103060.03;;;15.37;38.54
73936;BME280;62287;50.858;0.252;2023-02-03T11:08:32;103059.97;;;16.07;38.53
73936;BME280;62287;50.858;0.252;2023-02-03T11:09:21;103059.71;;;16.08;38.54
73936;BME280;62287;50.858;0.252;2023-02-03T11:09:53;103060.62;;;16.14;38.56
73936;BME280;62287;50.858;0.252;2023-02-03T11:10:26;103061.36;;;15.52;38.56
73936;BME280;62287;50.858;0.252;2023-02-03T11:11:01;103060.57;;;16.12;38.61
73936;BME280;62287;50.858;0.252;2023-02-03T11:11:32;103059.36;;;15.85;38.54
73936;BME280;62287;50.858;0.252;2023-02-03T11:12:09;103059.04;;;15.43;38.50
73936;BME280;62287;50.858;0.252;2023-02-03T11:12:41;103056.15;;;16.10;38.53
73936;BME280;62287;50.858;0.252;2023-02-03T11:13:18;103055.01;;;16.09;38.54
73936;BME280;62287;50.858;0.252;2023-02-03T11:13:54;103053.54;;;16.08;38.67
73936;BME280;62287;50.858;0.252;2023-02-03T11:14:25;103047.90;;;15.83;38.55
73936;BME280;62287;50.858;0.252;2023-02-03T11:15:06;103051.76;;;16.20;38.55
73936;BME280;62287;50.858;0.252;2023-02-03T11:15:37;103047.76;;;16.25;38.50
73936;BME280;62287;50.858;0.252;2023-02-03T11:16:15;103048.24;;;15.90;38.48
73936;BME280;62287;50.858;0.252;2023-02-03T11:16:46;103049.38;;;15.61;38.51
73936;BME280;62287;50.858;0.252;2023-02-03T11:17:19;103047.56;;;15.39;38.66
73936;BME280;62287;50.858;0.252;2023-02-03T11:17:50;103047.72;;;16.04;38.76
73936;BME280;62287;50.858;0.252;2023-02-03T11:18:41;103048.32;;;15.47;38.60
73936;BME280;62287;50.858;0.252;2023-02-03T11:19:15;103050.57;;;15.81;38.64
73936;BME280;62287;50.858;0.252;2023-02-03T11:19:49;103049.09;;;15.80;38.62
73936;BME280;62287;50.858;0.252;2023-02-03T11:20:21;103048.81;;;15.93;38.57
73936;BME280;62287;50.858;0.252;2023-02-03T11:20:52;103042.56;;;16.29;38.49
73936;BME280;62287;50.858;0.252;2023-02-03T11:21:25;103047.25;;;16.13;38.56
73936;BME280;62287;50.858;0.252;2023-02-03T11:21:58;103041.68;;;15.66;38.51
73936;BME280;62287;50.858;0.252;2023-02-03T11:22:31;103038.95;;;15.63;38.46
73936;BME280;62287;50.858;0.252;2023-02-03T11:23:05;103039.99;;;15.84;38.51
73936;BME280;62287;50.858;0.252;2023-02-03T11:23:37;103037.01;;;16.39;38.43
73936;BME280;62287;50.858;0.252;2023-02-03T11:24:18;103034.71;;;16.35;38.41
73936;BME280;62287;50.858;0.252;2023-02-03T11:24:49;103034.75;;;16.01;38.38
73936;BME280;62287;50.858;0.252;2023-02-03T11:25:27;103032.98;;;16.51;38.43
73936;BME280;62287;50.858;0.252;2023-02-03T11:26:09;103032.87;;;15.71;38.53
73936;BME280;62287;50.858;0.252;2023-02-03T11:26:44;103033.01;;;16.34;38.52
73936;BME280;62287;50.858;0.252;2023-02-03T11:27:17;103034.53;;;15.29;38.50
73936;BME280;62287;50.858;0.252;2023-02-03T11:27:49;103033.23;;;15.97;38.54
73936;BME280;62287;50.858;0.252;2023-02-03T11:28:27;103036.98;;;15.60;38.50
73936;BME280;62287;50.858;0.252;2023-02-03T11:29:00;103037.58;;;16.35;38.53
73936;BME280;62287;50.858;0.252;2023-02-03T11:29:32;103038.19;;;16.42;38.57
73936;BME280;62287;50.858;0.252;2023-02-03T11:30:13;103035.67;;;16.40;38.52
73936;BME280;62287;50.858;0.252;2023-02-03T11:30:45;103041.19;;;15.99;38.56
73936;BME280;62287;50.858;0.252;2023-02-03T11:31:18;103041.09;;;15.68;38.51
73936;BME280;62287;50.858;0.252;2023-02-03T11:31:52;103041.12;;;15.71;38.43
73936;BME280;62287;50.858;0.252;2023-02-03T11:32:31;103041.31;;;15.70;38.48
73936;BME280;62287;50.858;0.252;2023-02-03T11:33:16;103040.87;;;16.06;38.50
73936;BME280;62287;50.858;0.252;2023-02-03T11:34:22;103041.37;;;15.95;38.52
73936;BME280;62287;50.858;0.252;2023-02-03T11:34:56;103040.87;;;15.71;38.45
73936;BME280;62287;50.858;0.252;2023-02-03T11:35:29;103040.00;;;16.17;38.43
73936;BME280;62287;50.858;0.252;2023-02-03T11:36:01;103040.75;;;16.03;38.51
73936;BME280;62287;50.858;0.252;2023-02-03T11:36:34;103040.28;;;15.70;38.48
73936;BME280;62287;50.858;0.252;2023-02-03T11:37:25;103038.36;;;16.37;38.56
73936;BME280;62287;50.858;0.252;2023-02-03T11:37:57;103037.11;;;16.46;38.51
73936;BME280;62287;50.858;0.252;2023-02-03T11:38:31;103037.15;;;15.77;38.61
73936;BME280;62287;50.858;0.252;2023-02-03T11:39:16;103035.93;;;16.29;38.70
73936;BME280;62287;50.858;0.252;2023-02-03T11:39:48;103033.01;;;15.94;38.58
73936;BME280;62287;50.858;0.252;2023-02-03T11:40:27;103030.31;;;16.24;38.55
73936;BME280;62287;50.858;0.252;2023-02-03T11:41:00;103033.56;;;16.23;38.58
73936;BME280;62287;50.858;0.252;2023-02-03T11:41:36;103032.20;;;16.17;38.57
73936;BME280;62287;50.858;0.252;2023-02-03T11:42:20;103028.91;;;15.82;38.57
73936;BME280;62287;50.858;0.252;2023-02-03T11:43:01;103027.69;;;16.43;38.68
73936;BME280;62287;50.858;0.252;2023-02-03T11:43:32;103030.24;;;15.76;38.68
73936;BME280;62287;50.858;0.252;2023-02-03T11:44:09;103026.26;;;16.15;38.61
73936;BME280;62287;50.858;0.252;2023-02-03T11:44:40;103027.82;;;16.67;38.57
73936;BME280;62287;50.858;0.252;2023-02-03T11:45:26;103023.06;;;16.41;38.57
73936;BME280;62287;50.858;0.252;2023-02-03T11:46:00;103024.13;;;16.59;38.57
73936;BME280;62287;50.858;0.252;2023-02-03T11:46:36;103025.44;;;16.43;38.59
73936;BME280;62287;50.858;0.252;2023-02-03T11:47:08;103022.43;;;16.00;38.65
73936;BME280;62287;50.858;0.252;2023-02-03T11:47:44;103020.55;;;16.28;38.64
73936;BME280;62287;50.858;0.252;2023-02-03T11:48:25;103023.57;;;15.82;38.68
73936;BME280;62287;50.858;0.252;2023-02-03T11:49:02;103023.68;;;15.90;38.60
73936;BME280;62287;50.858;0.252;2023-02-03T11:50:18;103022.32;;;16.01;38.61
73936;BME280;62287;50.858;0.252;2023-02-03T11:50:59;103019.38;;;16.38;38.58
73936;BME280;62287;50.858;0.252;2023-02-03T11:51:40;103020.85;;;16.09;38.63
73936;BME280;62287;50.858;0.252;2023-02-03T11:52:30;103022.10;;;16.28;38.64
73936;BME280;62287;50.858;0.252;2023-02-03T11:53:14;103021.64;;;16.86;38.52
73936;BME280;62287;50.858;0.252;2023-02-03T11:54:01;103021.28;;;16.84;38.47
73936;BME280;62287;50.858;0.252;2023-02-03T11:54:39;103024.31;;;16.08;38.52
73936;BME280;62287;50.858;0.252;2023-02-03T11:55:41;103025.28;;;16.54;38.53
73936;BME280;62287;50.858;0.252;2023-02-03T11:56:25;103025.25;;;16.61;38.46
73936;BME280;62287;50.858;0.252;2023-02-03T11:57:10;103029.14;;;16.15;38.48
73936;BME280;62287;50.858;0.252;2023-02-03T11:57:54;103030.71;;;16.17;38.49
73936;BME280;62287;50.858;0.252;2023-02-03T11:58:42;103032.68;;;16.58;38.53
73936;BME280;62287;50.858;0.252;2023-02-03T11:59:29;103032.62;;;16.61;38.51
73936;BME280;62287;50.858;0.252;2023-02-03T12:00:13;103032.17;;;16.18;38.61
73936;BME280;62287;50.858;0.252;2023-02-03T12:00:55;103036.56;;;16.10;38.59
73936;BME280;62287;50.858;0.252;2023-02-03T12:01:49;103035.18;;;16.17;38.55
73936;BME280;62287;50.858;0.252;2023-02-03T12:03:43;103034.72;;;16.62;38.50
73936;BME280;62287;50.858;0.252;2023-02-03T12:04:34;103032.97;;;16.20;38.62
73936;BME280;62287;50.858;0.252;2023-02-03T12:05:21;103031.77;;;16.16;38.58
73936;BME280;62287;50.858;0.252;2023-02-03T12:06:11;103032.53;;;16.61;38.61
73936;BME280;62287;50.858;0.252;2023-02-03T12:06:57;103031.40;;;16.32;38.52
73936;BME280;62287;50.858;0.252;2023-02-03T12:07:48;103031.11;;;16.30;38.48
73936;BME280;62287;50.858;0.252;2023-02-03T12:08:29;103030.75;;;16.44;38.39
73936;BME280;62287;50.858;0.252;2023-02-03T12:09:12;103029.40;;;16.36;38.39
73936;BME280;62287;50.858;0.252;2023-02-03T12:09:53;103029.34;;;16.30;38.46
73936;BME280;62287;50.858;0.252;2023-02-03T12:10:37;103028.29;;;17.16;38.43
73936;BME280;62287;50.858;0.252;2023-02-03T12:11:21;103029.78;;;16.40;38.46
73936;BME280;62287;50.858;0.252;2023-02-03T12:12:11;103027.29;;;16.43;38.48
73936;BME280;62287;50.858;0.252;2023-02-03T12:12:50;103030.24;;;16.80;38.48
73936;BME280;62287;50.858;0.252;2023-02-03T12:13:36;103031.82;;;16.28;38.45
73936;BME280;62287;50.858;0.252;2023-02-03T12:14:22;103030.80;;;16.78;38.43
73936;BME280;62287;50.858;0.252;2023-02-03T12:15:03;103030.53;;;16.34;38.49
73936;BME280;62287;50.858;0.252;2023-02-03T12:15:55;103031.71;;;16.52;38.43
73936;BME280;62287;50.858;0.252;2023-02-03T12:16:50;103032.38;;;17.26;38.42
73936;BME280;62287;50.858;0.252;2023-02-03T12:17:39;103035.62;;;16.52;38.38
73936;BME280;62287;50.858;0.252;2023-02-03T12:18:21;103031.16;;;16.35;38.43
73936;BME280;62287;50.858;0.252;2023-02-03T12:19:06;103032.85;;;16.61;38.28
73936;BME280;62287;50.858;0.252;2023-02-03T12:19:55;103036.17;;;16.61;38.31
73936;BME280;62287;50.858;0.252;2023-02-03T12:20:41;103034.50;;;16.61;38.29
73936;BME280;62287;50.858;0.252;2023-02-03T12:21:29;103037.59;;;16.60;38.31
73936;BME280;62287;50.858;0.252;2023-02-03T12:22:10;103035.79;;;16.39;38.24
73936;BME280;62287;50.858;0.252;2023-02-03T12:22:50;103034.91;;;16.72;38.27
73936;BME280;62287;50.858;0.252;2023-02-03T12:23:37;103035.87;;;16.63;38.27
73936;BME280;62287;50.858;0.252;2023-02-03T12:24:22;103036.41;;;16.57;38.35
73936;BME280;62287;50.858;0.252;2023-02-03T12:25:04;103039.85;;;16.56;38.38
73936;BME280;62287;50.858;0.252;2023-02-03T12:25:50;103034.44;;;16.60;38.32
73936;BME280;62287;50.858;0.252;2023-02-03T12:26:28;103029.32;;;17.04;38.35
73936;BME280;62287;50.858;0.252;2023-02-03T12:27:15;103029.02;;;16.62;38.31
73936;BME280;62287;50.858;0.252;2023-02-03T12:27:55;103029.49;;;16.56;38.36
73936;BME280;62287;50.858;0.252;2023-02-03T12:28:40;103031.53;;;16.63;38.40
73936;BME280;62287;50.858;0.252;2023-02-03T12:29:15;103032.12;;;16.73;38.38
73936;BME280;62287;50.858;0.252;2023-02-03T12:29:53;103031.77;;;16.59;38.36
73936;BME280;62287;50.858;0.252;2023-02-03T12:30:29;103029.91;;;16.64;38.32
73936;BME280;62287;50.858;0.252;2023-02-03T12:31:07;103027.53;;;17.29;38.36
73936;BME280;62287;50.858;0.252;2023-02-03T12:31:44;103028.09;;;16.61;38.36
73936;BME280;62287;50.858;0.252;2023-02-03T12:32:24;103028.84;;;16.67;38.34
73936;BME280;62287;50.858;0.252;2023-02-03T12:33:00;103027.28;;;16.59;38.33
73936;BME280;62287;50.858;0.252;2023-02-03T12:33:37;103026.30;;;16.54;38.39
73936;BME280;62287;50.858;0.252;2023-02-03T12:34:16;103022.88;;;16.54;38.41
73936;BME280;62287;50.858;0.252;2023-02-03T12:34:52;103019.51;;;16.57;38.39
73936;BME280;62287;50.858;0.252;2023-02-03T12:35:30;103018.91;;;16.55;38.42
73936;BME280;62287;50.858;0.252;2023-02-03T12:36:08;103018.84;;;16.85;38.47
73936;BME280;62287;50.858;0.252;2023-02-03T12:36:44;103015.72;;;16.57;38.41
73936;BME280;62287;50.858;0.252;2023-02-03T12:37:22;103014.81;;;16.93;38.41
73936;BME280;62287;50.858;0.252;2023-02-03T12:37:59;103013.61;;;16.91;38.44
73936;BME280;62287;50.858;0.252;2023-02-03T12:38:35;103015.18;;;16.47;38.51
73936;BME280;62287;50.858;0.252;2023-02-03T12:39:16;103012.01;;;16.58;38.52